createdAt,value
2022-10-10T00:01:21.952Z,9.40
2022-10-10T00:03:49.029Z,9.40
2022-10-10T00:06:16.738Z,9.40
2022-10-10T00:08:46.649Z,9.50
2022-10-10T00:11:15.487Z,9.50
2022-10-10T00:13:42.543Z,9.50
2022-10-10T00:16:09.925Z,9.60
2022-10-10T00:18:37.572Z,9.60
2022-10-10T00:21:04.912Z,9.60
2022-10-10T00:23:31.877Z,9.60
2022-10-10T00:25:58.832Z,9.60
2022-10-10T00:28:25.826Z,9.60
2022-10-10T00:30:52.957Z,9.60
2022-10-10T00:33:20.343Z,9.70
2022-10-10T00:35:47.916Z,9.70
2022-10-10T00:38:14.976Z,9.70
2022-10-10T00:40:54.229Z,9.70
2022-10-10T00:43:22.659Z,9.80
2022-10-10T00:45:50.940Z,9.80
2022-10-10T00:48:36.765Z,9.80
2022-10-10T00:51:06.056Z,9.80
2022-10-10T00:53:52.207Z,9.80
2022-10-10T00:56:31.897Z,9.80
2022-10-10T00:59:04.185Z,9.80
2022-10-10T01:01:30.970Z,9.90
2022-10-10T01:04:01.745Z,9.90
2022-10-10T01:06:29.563Z,9.90
2022-10-10T01:08:57.190Z,9.90
2022-10-10T01:11:26.684Z,9.90
2022-10-10T01:14:28.459Z,9.90
2022-10-10T01:17:01.750Z,9.90
2022-10-10T01:20:01.840Z,10.00
2022-10-10T01:22:40.753Z,10.00
2022-10-10T01:25:17.248Z,10.00
2022-10-10T01:27:44.012Z,10.00
2022-10-10T01:30:15.433Z,10.00
2022-10-10T01:32:54.214Z,10.00
2022-10-10T01:36:01.387Z,10.10
2022-10-10T01:38:33.943Z,10.10
2022-10-10T01:41:09.084Z,10.00
2022-10-10T01:43:36.875Z,10.10
2022-10-10T01:46:22.806Z,10.10
2022-10-10T01:49:12.731Z,10.10
2022-10-10T01:52:30.357Z,10.10
2022-10-10T01:55:50.010Z,10.10
2022-10-10T01:59:03.212Z,10.10
2022-10-10T02:02:19.042Z,10.20
2022-10-10T02:05:05.020Z,10.20
2022-10-10T02:07:56.184Z,10.20
2022-10-10T02:10:28.015Z,10.20
2022-10-10T02:12:57.532Z,10.20
2022-10-10T02:15:26.740Z,10.20
2022-10-10T02:17:55.678Z,10.30
2022-10-10T02:20:26.778Z,10.30
2022-10-10T02:22:56.575Z,10.30
2022-10-10T02:25:29.297Z,10.30
2022-10-10T02:28:11.443Z,10.30
2022-10-10T02:30:39.829Z,10.40
2022-10-10T02:33:08.719Z,10.40
2022-10-10T02:35:41.284Z,10.40
2022-10-10T02:38:10.779Z,10.40
2022-10-10T02:40:39.984Z,10.50
2022-10-10T02:43:08.748Z,10.50
2022-10-10T02:45:35.980Z,10.50
2022-10-10T02:48:03.493Z,10.50
2022-10-10T02:50:31.768Z,10.50
2022-10-10T02:53:00.091Z,10.50
2022-10-10T02:58:10.080Z,10.50
2022-10-10T03:03:04.885Z,10.50
2022-10-10T03:05:32.049Z,10.50
2022-10-10T03:07:58.978Z,10.50
2022-10-10T03:10:25.960Z,10.50
2022-10-10T03:12:53.213Z,10.50
2022-10-10T03:15:20.220Z,10.50
2022-10-10T03:17:47.195Z,10.50
2022-10-10T03:20:13.992Z,10.50
2022-10-10T03:22:40.989Z,10.50
2022-10-10T03:25:08.428Z,10.40
2022-10-10T03:27:35.338Z,10.50
2022-10-10T03:30:02.915Z,10.50
2022-10-10T03:32:29.729Z,10.40
2022-10-10T03:34:56.941Z,10.50
2022-10-10T03:37:23.795Z,10.50
2022-10-10T03:39:50.891Z,10.50
2022-10-10T03:42:17.838Z,10.50
2022-10-10T03:44:44.763Z,10.50
2022-10-10T03:47:11.772Z,10.50
2022-10-10T03:49:38.692Z,10.40
2022-10-10T03:52:05.513Z,10.50
2022-10-10T03:54:32.980Z,10.40
2022-10-10T03:56:59.880Z,10.40
2022-10-10T03:59:26.771Z,10.40
2022-10-10T04:02:04.736Z,10.40
2022-10-10T04:04:32.099Z,10.30
2022-10-10T04:06:59.055Z,10.20
2022-10-10T04:12:10.930Z,10.20
2022-10-10T04:14:37.817Z,10.20
2022-10-10T04:17:04.687Z,10.20
2022-10-10T04:19:31.589Z,10.20
2022-10-10T04:21:58.326Z,10.20
2022-10-10T04:24:25.287Z,10.10
2022-10-10T04:26:52.020Z,10.10
2022-10-10T04:29:18.863Z,10.00
2022-10-10T04:31:45.686Z,10.00
2022-10-10T04:34:12.546Z,9.90
2022-10-10T04:36:39.390Z,9.90
2022-10-10T04:39:06.217Z,9.90
2022-10-10T04:41:32.965Z,9.90
2022-10-10T04:43:59.727Z,9.80
2022-10-10T04:46:26.715Z,9.80
2022-10-10T04:48:53.497Z,9.80
2022-10-10T04:51:20.341Z,9.80
2022-10-10T04:53:50.451Z,9.80
2022-10-10T04:56:17.490Z,9.80
2022-10-10T04:58:44.250Z,9.80
2022-10-10T05:01:11.053Z,9.80
2022-10-10T05:03:37.918Z,9.70
2022-10-10T05:06:04.831Z,9.70
2022-10-10T05:08:31.642Z,9.70
2022-10-10T05:10:58.441Z,9.70
2022-10-10T05:13:25.250Z,9.70
2022-10-10T05:15:52.572Z,9.70
2022-10-10T05:18:20.923Z,9.70
2022-10-10T05:20:47.898Z,9.80
2022-10-10T05:23:15.545Z,9.70
2022-10-10T05:25:49.765Z,9.70
2022-10-10T05:28:17.418Z,9.70
2022-10-10T05:30:44.275Z,9.70
2022-10-10T05:33:11.320Z,9.70
2022-10-10T05:35:38.093Z,9.70
2022-10-10T05:38:05.383Z,9.60
2022-10-10T05:40:32.162Z,9.60
2022-10-10T05:42:58.960Z,9.60
2022-10-10T05:45:25.757Z,9.60
2022-10-10T05:47:52.600Z,9.60
2022-10-10T05:50:31.617Z,9.60
2022-10-10T05:52:59.129Z,9.60
2022-10-10T05:55:25.939Z,9.60
2022-10-10T05:57:53.073Z,9.60
2022-10-10T06:00:20.065Z,9.60
2022-10-10T06:02:46.999Z,9.60
2022-10-10T06:05:14.194Z,9.70
2022-10-10T06:08:03.364Z,9.70
2022-10-10T06:10:27.759Z,9.70
2022-10-10T06:12:54.657Z,9.70
2022-10-10T06:15:21.548Z,9.70
2022-10-10T06:17:48.368Z,9.70
2022-10-10T06:20:15.457Z,9.80
2022-10-10T06:22:42.273Z,9.80
2022-10-10T06:25:24.001Z,9.80
2022-10-10T06:27:56.882Z,9.80
2022-10-10T06:30:23.855Z,9.90
2022-10-10T06:32:54.632Z,9.90
2022-10-10T06:35:26.132Z,10.00
2022-10-10T06:37:54.160Z,10.00
2022-10-10T06:40:20.916Z,10.00
2022-10-10T06:42:47.659Z,10.10
2022-10-10T06:45:14.427Z,10.10
2022-10-10T06:47:42.056Z,10.20
2022-10-10T06:50:09.079Z,10.30
2022-10-10T06:52:36.008Z,10.40
2022-10-10T06:55:02.835Z,10.40
2022-10-10T07:00:59.664Z,10.50
2022-10-10T07:03:28.229Z,10.60
2022-10-10T07:06:00.710Z,10.70
2022-10-10T07:08:28.624Z,10.70
2022-10-10T07:10:55.872Z,10.80
2022-10-10T07:13:22.697Z,10.90
2022-10-10T07:15:49.421Z,10.90
2022-10-10T07:18:18.746Z,11.00
2022-10-10T07:20:45.593Z,11.00
2022-10-10T07:23:12.508Z,11.00
2022-10-10T07:25:40.314Z,11.10
2022-10-10T07:28:08.363Z,11.10
2022-10-10T07:30:44.004Z,11.20
2022-10-10T07:35:54.159Z,11.30
2022-10-10T07:38:20.972Z,11.30
2022-10-10T07:40:47.764Z,11.40
2022-10-10T07:43:16.586Z,11.50
2022-10-10T07:45:43.334Z,11.60
2022-10-10T07:48:10.218Z,11.70
2022-10-10T07:50:41.928Z,11.70
2022-10-10T07:53:10.263Z,11.80
2022-10-10T07:58:41.174Z,12.00
2022-10-10T08:13:50.301Z,12.50
2022-10-10T08:16:17.854Z,12.50
2022-10-10T08:18:44.760Z,12.60
2022-10-10T08:21:13.294Z,12.60
2022-10-10T08:23:40.495Z,12.70
2022-10-10T08:26:09.383Z,12.80
2022-10-10T08:29:18.146Z,12.80
2022-10-10T08:36:08.258Z,13.00
2022-10-10T08:38:55.799Z,13.10
2022-10-10T08:41:43.221Z,13.30
2022-10-10T08:44:13.778Z,13.40
2022-10-10T08:47:03.284Z,13.50
2022-10-10T08:49:47.827Z,13.60
2022-10-10T08:52:53.710Z,13.70
2022-10-10T08:55:33.705Z,13.80
2022-10-10T08:58:19.806Z,13.90
2022-10-10T09:03:55.139Z,14.20
2022-10-10T09:06:46.811Z,14.30
2022-10-10T09:09:25.009Z,14.50
2022-10-10T09:12:18.691Z,14.60
2022-10-10T09:15:04.131Z,14.80
2022-10-10T09:17:51.753Z,14.90
2022-10-10T09:20:52.605Z,14.90
2022-10-10T09:27:12.278Z,15.10
2022-10-10T09:29:41.881Z,15.20
2022-10-10T09:32:25.579Z,15.30
2022-10-10T09:35:01.868Z,15.40
2022-10-10T09:37:46.885Z,15.50
2022-10-10T09:40:39.792Z,15.60
2022-10-10T09:43:17.618Z,15.70
2022-10-10T09:46:02.639Z,15.90
2022-10-10T09:48:32.878Z,16.00
2022-10-10T09:51:17.903Z,16.00
2022-10-10T09:53:48.260Z,16.10
2022-10-10T09:56:24.912Z,16.10
2022-10-10T09:59:07.893Z,16.00
2022-10-10T10:01:34.762Z,16.10
2022-10-10T10:04:28.189Z,16.20
2022-10-10T10:08:19.608Z,16.20
2022-10-10T10:11:32.081Z,16.40
2022-10-10T10:14:09.541Z,16.50
2022-10-10T10:20:00.233Z,16.60
2022-10-10T10:22:34.848Z,16.60
2022-10-10T10:25:37.179Z,16.70
2022-10-10T10:28:21.319Z,16.80
2022-10-10T10:30:59.892Z,16.80
2022-10-10T10:49:14.627Z,17.80
2022-10-10T10:52:07.367Z,18.00
2022-10-10T10:54:52.286Z,18.10
2022-10-10T10:57:32.921Z,18.20
2022-10-10T11:00:20.398Z,18.30
2022-10-10T11:03:38.602Z,18.40
2022-10-10T11:06:28.296Z,18.40
2022-10-10T11:09:44.992Z,18.40
2022-10-10T11:12:29.083Z,18.50
2022-10-10T11:15:05.957Z,18.60
2022-10-10T11:17:41.291Z,18.70
2022-10-10T11:20:35.066Z,18.70
2022-10-10T11:23:17.886Z,18.70
2022-10-10T11:25:50.426Z,18.80
2022-10-10T11:28:33.085Z,18.70
2022-10-10T11:31:25.195Z,18.80
2022-10-10T11:33:57.764Z,18.90
2022-10-10T11:36:29.807Z,18.90
2022-10-10T11:39:15.503Z,18.90
2022-10-10T11:42:07.805Z,19.00
2022-10-10T11:44:39.577Z,19.20
2022-10-10T11:47:24.355Z,19.30
2022-10-10T11:50:15.958Z,19.10
2022-10-10T11:53:01.932Z,18.90
2022-10-10T11:56:02.503Z,18.90
2022-10-10T11:58:42.450Z,18.90
2022-10-10T12:01:19.991Z,18.90
2022-10-10T12:03:46.848Z,19.00
2022-10-10T12:06:33.589Z,19.00
2022-10-10T12:09:14.385Z,19.00
2022-10-10T12:11:48.528Z,19.10
2022-10-10T12:14:18.066Z,19.00
2022-10-10T12:16:45.255Z,19.10
2022-10-10T12:19:23.399Z,19.00
2022-10-10T12:22:06.030Z,19.00
2022-10-10T12:24:38.663Z,19.00
2022-10-10T12:27:07.820Z,18.90
2022-10-10T12:30:09.809Z,18.90
2022-10-10T12:32:38.551Z,19.10
2022-10-10T12:35:38.974Z,19.40
2022-10-10T12:38:06.153Z,19.70
2022-10-10T12:40:35.195Z,19.70
2022-10-10T12:43:25.493Z,19.60
2022-10-10T12:45:57.718Z,19.60
2022-10-10T12:48:25.429Z,19.50
2022-10-10T12:51:00.396Z,19.50
2022-10-10T12:53:31.164Z,19.40
2022-10-10T12:56:00.965Z,19.40
2022-10-10T12:58:37.489Z,19.40
2022-10-10T13:01:08.941Z,19.50
2022-10-10T13:03:35.820Z,19.60
2022-10-10T13:06:08.028Z,19.60
2022-10-10T13:08:37.429Z,19.60
2022-10-10T13:11:12.968Z,19.50
2022-10-10T13:13:41.309Z,19.50
2022-10-10T13:16:14.310Z,19.50
2022-10-10T13:18:48.217Z,19.60
2022-10-10T13:21:18.548Z,19.60
2022-10-10T13:26:47.143Z,19.90
2022-10-10T13:29:23.040Z,20.00
2022-10-10T13:31:55.496Z,20.10
2022-10-10T13:34:27.444Z,20.30
2022-10-10T13:37:00.642Z,20.30
2022-10-10T13:39:30.923Z,20.20
2022-10-10T13:41:58.339Z,20.10
2022-10-10T13:44:34.195Z,19.90
2022-10-10T13:47:39.358Z,19.80
2022-10-10T13:50:21.626Z,19.70
2022-10-10T13:52:48.622Z,19.70
2022-10-10T13:55:25.777Z,19.80
2022-10-10T13:57:58.211Z,19.80
2022-10-10T14:00:30.575Z,19.80
2022-10-10T14:02:57.465Z,19.70
2022-10-10T14:05:29.247Z,19.70
2022-10-10T14:07:57.413Z,19.50
2022-10-10T14:10:27.489Z,19.40
2022-10-10T14:13:00.448Z,19.40
2022-10-10T14:15:35.239Z,19.50
2022-10-10T14:18:03.651Z,19.50
2022-10-10T14:20:30.564Z,19.40
2022-10-10T14:23:01.228Z,19.40
2022-10-10T14:25:28.029Z,19.40
2022-10-10T14:27:54.770Z,19.30
2022-10-10T14:30:22.138Z,19.20
2022-10-10T14:32:48.927Z,19.20
2022-10-10T14:35:15.989Z,19.10
2022-10-10T14:37:42.936Z,19.10
2022-10-10T14:40:20.187Z,19.00
2022-10-10T14:42:47.478Z,18.80
2022-10-10T14:45:16.570Z,18.80
2022-10-10T14:47:43.579Z,18.70
2022-10-10T14:50:19.827Z,18.70
2022-10-10T14:52:46.583Z,18.60
2022-10-10T14:55:14.022Z,18.60
2022-10-10T14:57:42.513Z,18.50
2022-10-10T15:02:39.861Z,18.40
2022-10-10T15:05:08.784Z,18.40
2022-10-10T15:07:35.862Z,18.40
2022-10-10T15:10:32.052Z,18.30
2022-10-10T15:12:50.414Z,18.30
2022-10-10T15:15:17.307Z,18.20
2022-10-10T15:17:45.091Z,18.10
2022-10-10T15:20:13.037Z,18.10
2022-10-10T15:22:40.434Z,18.10
2022-10-10T15:25:08.451Z,18.10
2022-10-10T15:27:36.376Z,18.00
2022-10-10T15:30:04.049Z,18.00
2022-10-10T15:32:30.848Z,17.90
2022-10-10T15:34:57.797Z,17.80
2022-10-10T15:37:26.835Z,17.80
2022-10-10T15:39:53.907Z,17.70
2022-10-10T15:42:23.074Z,17.70
2022-10-10T15:44:51.237Z,17.60
2022-10-10T15:47:19.004Z,17.60
2022-10-10T15:49:45.823Z,17.50
2022-10-10T15:52:12.990Z,17.50
2022-10-10T15:54:41.013Z,17.50
2022-10-10T15:57:08.171Z,17.50
2022-10-10T15:59:37.882Z,17.40
2022-10-10T16:02:07.582Z,17.40
2022-10-10T16:04:34.418Z,17.40
2022-10-10T16:09:47.960Z,17.40
2022-10-10T16:12:14.821Z,17.40
2022-10-10T16:14:41.618Z,17.40
2022-10-10T16:17:08.506Z,17.30
2022-10-10T16:19:38.409Z,17.30
2022-10-10T16:22:05.349Z,17.20
2022-10-10T16:24:32.215Z,17.10
2022-10-10T16:26:59.667Z,17.00
2022-10-10T16:29:26.400Z,17.00
2022-10-10T16:31:53.137Z,16.90
2022-10-10T16:34:20.147Z,16.80
2022-10-10T16:36:46.906Z,16.70
2022-10-10T16:39:13.669Z,16.60
2022-10-10T16:41:48.051Z,16.40
2022-10-10T16:44:19.098Z,16.30
2022-10-10T16:46:45.898Z,16.20
2022-10-10T16:49:13.922Z,16.00
2022-10-10T16:51:44.284Z,15.90
2022-10-10T16:54:13.927Z,15.80
2022-10-10T16:56:42.706Z,15.60
2022-10-10T16:59:11.101Z,15.50
2022-10-10T17:01:39.063Z,15.40
2022-10-10T17:04:07.076Z,15.30
2022-10-10T17:06:38.045Z,15.20
2022-10-10T17:09:10.100Z,15.10
2022-10-10T17:11:37.692Z,15.00
2022-10-10T17:14:05.279Z,14.90
2022-10-10T17:19:21.145Z,14.80
2022-10-10T17:21:49.002Z,14.70
2022-10-10T17:24:17.892Z,14.60
2022-10-10T17:26:46.096Z,14.50
2022-10-10T17:29:14.667Z,14.50
2022-10-10T17:31:42.815Z,14.40
2022-10-10T17:34:10.084Z,14.30
2022-10-10T17:36:37.551Z,14.20
2022-10-10T17:39:05.097Z,14.20
2022-10-10T17:41:33.683Z,14.10
2022-10-10T17:44:01.092Z,14.10
2022-10-10T17:46:36.700Z,14.00
2022-10-10T17:49:07.913Z,13.90
2022-10-10T17:51:38.119Z,13.80
2022-10-10T17:54:09.309Z,13.80
2022-10-10T17:56:38.128Z,13.70
2022-10-10T17:59:07.204Z,13.60
2022-10-10T18:01:36.575Z,13.60
2022-10-10T18:04:03.942Z,13.50
2022-10-10T18:06:32.326Z,13.40
2022-10-10T18:09:00.549Z,13.30
2022-10-10T18:11:32.424Z,13.30
2022-10-10T18:14:03.361Z,13.20
2022-10-10T18:16:38.391Z,13.10
2022-10-10T18:19:07.945Z,13.10
2022-10-10T18:21:47.203Z,13.00
2022-10-10T18:24:15.339Z,12.90
2022-10-10T18:26:42.317Z,12.90
2022-10-10T18:29:28.810Z,12.80
2022-10-10T18:31:59.977Z,12.70
2022-10-10T18:34:27.375Z,12.60
2022-10-10T18:36:56.260Z,12.50
2022-10-10T18:39:23.244Z,12.50
2022-10-10T18:41:50.273Z,12.40
2022-10-10T18:44:18.952Z,12.30
2022-10-10T18:46:46.433Z,12.30
2022-10-10T18:49:14.857Z,12.20
2022-10-10T18:51:43.482Z,12.20
2022-10-10T18:54:17.306Z,12.20
2022-10-10T18:56:45.434Z,12.10
2022-10-10T18:59:16.339Z,12.10
2022-10-10T19:01:45.980Z,12.10
2022-10-10T19:04:14.760Z,12.10
2022-10-10T19:06:42.840Z,12.10
2022-10-10T19:09:12.221Z,12.10
2022-10-10T19:11:41.389Z,12.10
2022-10-10T19:14:11.021Z,12.10
2022-10-10T19:16:39.599Z,12.00
2022-10-10T19:19:06.839Z,12.00
2022-10-10T19:21:38.201Z,11.90
2022-10-10T19:24:07.274Z,11.80
2022-10-10T19:26:35.211Z,11.80
2022-10-10T19:29:07.396Z,11.70
2022-10-10T19:31:38.454Z,11.70
2022-10-10T19:34:05.768Z,11.70
2022-10-10T19:36:32.836Z,11.70
2022-10-10T19:39:03.735Z,11.60
2022-10-10T19:41:30.906Z,11.60
2022-10-10T19:43:58.843Z,11.60
2022-10-10T19:46:27.310Z,11.60
2022-10-10T19:48:58.251Z,11.60
2022-10-10T19:51:29.554Z,11.60
2022-10-10T19:53:57.715Z,11.60
2022-10-10T19:56:27.171Z,11.60
2022-10-10T19:58:56.383Z,11.60
2022-10-10T20:01:29.064Z,11.50
2022-10-10T20:03:57.992Z,11.50
2022-10-10T20:06:25.243Z,11.50
2022-10-10T20:08:54.068Z,11.40
2022-10-10T20:11:27.151Z,11.40
2022-10-10T20:14:08.683Z,11.30
2022-10-10T20:25:07.684Z,11.20
2022-10-10T20:27:40.434Z,11.10
2022-10-10T20:30:16.523Z,11.10
2022-10-10T20:35:32.120Z,11.10
2022-10-10T20:38:03.545Z,11.10
2022-10-10T20:40:42.750Z,11.10
2022-10-10T20:43:15.969Z,11.00
2022-10-10T20:45:43.451Z,11.00
2022-10-10T20:48:10.954Z,11.00
2022-10-10T20:50:42.053Z,10.90
2022-10-10T20:53:13.421Z,10.90
2022-10-10T20:55:41.757Z,10.80
2022-10-10T20:58:10.034Z,10.80
2022-10-10T21:03:07.331Z,10.70
2022-10-10T21:05:36.120Z,10.70
2022-10-10T21:08:03.016Z,10.70
2022-10-10T21:10:30.155Z,10.70
2022-10-10T21:12:57.041Z,10.60
2022-10-10T21:15:23.969Z,10.60
2022-10-10T21:17:50.787Z,10.60
2022-10-10T21:20:17.788Z,10.60
2022-10-10T21:22:45.188Z,10.60
2022-10-10T21:25:13.372Z,10.60
2022-10-10T21:27:40.372Z,10.60
2022-10-10T21:30:08.308Z,10.60
2022-10-10T21:32:35.314Z,10.60
2022-10-10T21:35:02.197Z,10.60
2022-10-10T21:37:29.623Z,10.60
2022-10-10T21:39:56.544Z,10.60
2022-10-10T21:42:23.609Z,10.60
2022-10-10T21:44:50.398Z,10.60
2022-10-10T21:47:17.228Z,10.70
2022-10-10T21:49:44.237Z,10.70
2022-10-10T21:52:11.136Z,10.70
2022-10-10T21:54:38.446Z,10.70
2022-10-10T21:57:05.761Z,10.70
2022-10-10T21:59:32.739Z,10.70
2022-10-10T22:01:59.731Z,10.60
2022-10-10T22:04:29.026Z,10.60
2022-10-10T22:06:56.352Z,10.60
2022-10-10T22:09:23.164Z,10.50
2022-10-10T22:11:50.024Z,10.40
2022-10-10T22:14:16.902Z,10.40
2022-10-10T22:16:43.862Z,10.40
2022-10-10T22:19:10.793Z,10.40
2022-10-10T22:21:37.718Z,10.40
2022-10-10T22:24:07.323Z,10.30
2022-10-10T22:26:35.327Z,10.30
2022-10-10T22:29:02.346Z,10.30
2022-10-10T22:31:29.485Z,10.30
2022-10-10T22:33:56.687Z,10.30
2022-10-10T22:36:23.525Z,10.30
2022-10-10T22:38:50.467Z,10.40
2022-10-10T22:41:17.365Z,10.40
2022-10-10T22:43:44.262Z,10.40
2022-10-10T22:46:11.241Z,10.50
2022-10-10T22:48:38.354Z,10.50
2022-10-10T22:51:17.795Z,10.50
2022-10-10T22:53:46.433Z,10.60
2022-10-10T22:56:17.452Z,10.60
2022-10-10T22:58:44.321Z,10.60
2022-10-10T23:01:20.763Z,10.60
2022-10-10T23:03:47.833Z,10.70
2022-10-10T23:06:15.090Z,10.70
2022-10-10T23:08:41.932Z,10.70
2022-10-10T23:11:08.841Z,10.70
2022-10-10T23:13:35.939Z,10.80
2022-10-10T23:16:03.366Z,10.80
2022-10-10T23:18:30.909Z,10.80
2022-10-10T23:20:58.023Z,10.80
2022-10-10T23:23:25.257Z,10.90
2022-10-10T23:25:52.491Z,10.90
2022-10-10T23:28:19.350Z,11.00
2022-10-10T23:30:48.088Z,11.00
2022-10-10T23:33:16.508Z,11.00
2022-10-10T23:35:43.367Z,11.10
2022-10-10T23:38:10.336Z,11.10
2022-10-10T23:40:37.200Z,11.20
2022-10-10T23:43:04.497Z,11.30
2022-10-10T23:45:31.421Z,11.30
2022-10-10T23:47:58.373Z,11.30
2022-10-10T23:50:25.240Z,11.40
2022-10-10T23:52:52.136Z,11.40
2022-10-10T23:55:19.113Z,11.40
2022-10-10T23:57:46.044Z,11.40
